createdAt,value
2022-08-03T00:01:32.427Z,99.90
2022-08-03T00:03:59.470Z,99.90
2022-08-03T00:06:26.726Z,99.90
2022-08-03T00:08:53.838Z,99.90
2022-08-03T00:11:20.983Z,99.90
2022-08-03T00:13:48.111Z,99.90
2022-08-03T00:16:15.488Z,99.90
2022-08-03T00:18:42.507Z,99.90
2022-08-03T00:21:09.636Z,99.90
2022-08-03T00:23:51.301Z,99.90
2022-08-03T00:26:20.575Z,99.90
2022-08-03T00:28:47.720Z,99.90
2022-08-03T00:31:14.708Z,99.90
2022-08-03T00:33:58.151Z,99.90
2022-08-03T00:36:27.261Z,99.90
2022-08-03T00:38:54.399Z,99.90
2022-08-03T00:41:21.627Z,99.90
2022-08-03T00:43:49.088Z,99.90
2022-08-03T00:46:21.045Z,99.90
2022-08-03T00:48:50.657Z,99.90
2022-08-03T00:51:18.793Z,99.90
2022-08-03T00:53:46.245Z,99.90
2022-08-03T00:56:17.312Z,99.90
2022-08-03T00:58:45.769Z,99.90
2022-08-03T01:01:13.065Z,99.90
2022-08-03T01:03:40.528Z,99.90
2022-08-03T01:06:18.711Z,99.90
2022-08-03T01:09:00.516Z,99.90
2022-08-03T01:12:04.494Z,99.90
2022-08-03T01:14:44.192Z,99.90
2022-08-03T01:17:23.023Z,99.90
2022-08-03T01:20:09.276Z,99.90
2022-08-03T01:22:50.198Z,99.90
2022-08-03T01:25:44.809Z,99.90
2022-08-03T01:28:20.981Z,99.90
2022-08-03T01:30:48.884Z,99.90
2022-08-03T01:33:22.973Z,99.90
2022-08-03T01:36:02.340Z,99.90
2022-08-03T01:38:38.899Z,99.90
2022-08-03T01:41:09.152Z,99.90
2022-08-03T01:43:55.231Z,99.90
2022-08-03T01:46:27.903Z,99.90
2022-08-03T01:48:55.741Z,99.90
2022-08-03T01:51:23.110Z,99.90
2022-08-03T01:53:55.077Z,99.90
2022-08-03T01:56:24.854Z,99.90
2022-08-03T01:58:54.017Z,99.90
2022-08-03T02:01:22.865Z,99.90
2022-08-03T02:03:59.620Z,99.90
2022-08-03T02:06:59.942Z,99.90
2022-08-03T02:09:19.988Z,99.90
2022-08-03T02:11:48.256Z,99.90
2022-08-03T02:14:16.405Z,99.90
2022-08-03T02:16:45.623Z,99.90
2022-08-03T02:19:13.936Z,99.90
2022-08-03T02:21:56.721Z,99.90
2022-08-03T02:24:29.735Z,99.90
2022-08-03T02:26:57.788Z,99.90
2022-08-03T02:29:39.143Z,99.90
2022-08-03T02:32:11.788Z,99.90
2022-08-03T02:34:41.346Z,99.90
2022-08-03T02:37:10.477Z,99.90
2022-08-03T02:39:40.059Z,99.90
2022-08-03T02:42:12.754Z,99.90
2022-08-03T02:44:43.919Z,99.90
2022-08-03T02:47:13.269Z,99.90
2022-08-03T02:49:50.591Z,99.90
2022-08-03T02:52:21.644Z,99.90
2022-08-03T02:54:52.516Z,99.90
2022-08-03T02:57:21.147Z,99.90
2022-08-03T02:59:49.003Z,99.90
2022-08-03T03:02:18.533Z,99.90
2022-08-03T03:05:53.329Z,99.90
2022-08-03T03:07:35.325Z,99.90
2022-08-03T03:10:24.013Z,99.90
2022-08-03T03:12:53.470Z,99.90
2022-08-03T03:15:20.715Z,99.90
2022-08-03T03:17:50.155Z,99.90
2022-08-03T03:20:29.261Z,99.90
2022-08-03T03:23:00.209Z,99.90
2022-08-03T03:25:31.897Z,99.90
2022-08-03T03:28:00.165Z,99.90
2022-08-03T03:30:36.786Z,99.90
2022-08-03T03:33:03.997Z,99.90
2022-08-03T03:35:31.821Z,99.90
2022-08-03T03:38:06.659Z,99.90
2022-08-03T03:40:35.483Z,99.90
2022-08-03T03:43:02.913Z,99.90
2022-08-03T03:45:31.830Z,99.90
2022-08-03T03:48:01.164Z,99.90
2022-08-03T03:50:30.284Z,99.90
2022-08-03T03:52:57.334Z,99.90
2022-08-03T03:55:24.969Z,99.90
2022-08-03T03:57:52.015Z,99.90
2022-08-03T04:00:19.469Z,99.90
2022-08-03T04:02:47.179Z,99.90
2022-08-03T04:05:33.460Z,99.90
2022-08-03T04:08:22.859Z,99.90
2022-08-03T04:11:13.897Z,99.90
2022-08-03T04:13:56.943Z,99.90
2022-08-03T04:16:32.603Z,99.90
2022-08-03T04:19:03.177Z,99.90
2022-08-03T04:21:32.367Z,99.90
2022-08-03T04:24:02.532Z,99.90
2022-08-03T04:26:33.896Z,99.90
2022-08-03T04:29:01.703Z,99.90
2022-08-03T04:31:30.153Z,99.90
2022-08-03T04:33:57.924Z,99.90
2022-08-03T04:36:27.944Z,99.90
2022-08-03T04:39:00.811Z,99.90
2022-08-03T04:41:28.840Z,99.90
2022-08-03T04:43:58.900Z,99.90
2022-08-03T04:46:29.631Z,99.90
2022-08-03T04:48:57.501Z,99.90
2022-08-03T04:51:25.505Z,99.90
2022-08-03T04:53:52.452Z,99.90
2022-08-03T04:56:20.098Z,99.90
2022-08-03T04:58:47.159Z,99.90
2022-08-03T05:01:14.328Z,99.90
2022-08-03T05:03:41.451Z,99.90
2022-08-03T05:06:11.124Z,99.90
2022-08-03T05:08:46.411Z,99.90
2022-08-03T05:11:15.812Z,99.90
2022-08-03T05:13:43.178Z,99.90
2022-08-03T05:16:10.228Z,99.90
2022-08-03T05:18:37.307Z,99.90
2022-08-03T05:21:05.204Z,99.90
2022-08-03T05:23:32.477Z,99.90
2022-08-03T05:25:59.576Z,99.90
2022-08-03T05:28:26.615Z,99.90
2022-08-03T05:30:53.633Z,99.90
2022-08-03T05:33:20.622Z,99.90
2022-08-03T05:35:57.702Z,99.90
2022-08-03T05:38:34.794Z,99.90
2022-08-03T05:41:22.399Z,99.90
2022-08-03T05:43:55.222Z,99.90
2022-08-03T05:46:23.421Z,99.90
2022-08-03T05:48:50.943Z,99.90
2022-08-03T05:51:18.209Z,99.90
2022-08-03T05:53:45.379Z,99.90
2022-08-03T05:56:14.018Z,99.90
2022-08-03T05:58:44.051Z,99.90
2022-08-03T06:01:11.132Z,99.90
2022-08-03T06:03:38.181Z,99.90
2022-08-03T06:06:05.288Z,99.90
2022-08-03T06:08:32.365Z,99.90
2022-08-03T06:10:59.427Z,99.90
2022-08-03T06:13:26.501Z,99.90
2022-08-03T06:15:53.472Z,99.90
2022-08-03T06:18:20.530Z,99.90
2022-08-03T06:20:49.483Z,99.90
2022-08-03T06:23:17.982Z,99.90
2022-08-03T06:25:46.001Z,99.90
2022-08-03T06:28:42.382Z,99.90
2022-08-03T06:31:01.773Z,99.90
2022-08-03T06:33:48.381Z,99.90
2022-08-03T06:36:16.310Z,99.90
2022-08-03T06:38:43.426Z,99.90
2022-08-03T06:41:10.440Z,99.90
2022-08-03T06:43:55.534Z,99.90
2022-08-03T06:46:24.922Z,99.90
2022-08-03T06:48:53.226Z,99.90
2022-08-03T06:51:20.308Z,99.90
2022-08-03T06:53:47.311Z,99.90
2022-08-03T06:56:14.578Z,99.90
2022-08-03T06:58:41.552Z,99.90
2022-08-03T07:01:08.537Z,99.90
2022-08-03T07:03:35.619Z,99.90
2022-08-03T07:06:03.489Z,99.90
2022-08-03T07:08:33.639Z,99.90
2022-08-03T07:11:01.688Z,99.90
2022-08-03T07:13:28.700Z,99.90
2022-08-03T07:15:56.615Z,99.90
2022-08-03T07:18:27.598Z,99.90
2022-08-03T07:20:59.699Z,99.90
2022-08-03T07:23:26.766Z,99.90
2022-08-03T07:25:53.747Z,99.90
2022-08-03T07:28:21.209Z,99.90
2022-08-03T07:30:48.437Z,99.90
2022-08-03T07:33:15.663Z,99.90
2022-08-03T07:35:42.805Z,99.90
2022-08-03T07:38:09.850Z,99.90
2022-08-03T07:40:36.809Z,99.90
2022-08-03T07:43:04.039Z,99.90
2022-08-03T07:45:34.510Z,99.90
2022-08-03T07:48:01.682Z,99.90
2022-08-03T07:50:28.694Z,99.90
2022-08-03T07:52:56.282Z,99.90
2022-08-03T07:55:25.999Z,99.90
2022-08-03T07:58:06.416Z,99.90
2022-08-03T08:00:34.152Z,99.90
2022-08-03T08:03:01.431Z,99.90
2022-08-03T08:05:29.622Z,99.90
2022-08-03T08:07:56.903Z,99.90
2022-08-03T08:10:24.185Z,99.90
2022-08-03T08:12:51.222Z,99.90
2022-08-03T08:15:18.322Z,99.90
2022-08-03T08:17:50.796Z,99.90
2022-08-03T08:20:31.319Z,99.90
2022-08-03T08:23:09.539Z,99.90
2022-08-03T08:25:52.148Z,99.90
2022-08-03T08:28:29.458Z,99.90
2022-08-03T08:30:59.291Z,99.90
2022-08-03T08:33:37.384Z,99.90
2022-08-03T08:36:15.356Z,99.80
2022-08-03T08:38:45.288Z,99.60
2022-08-03T08:41:13.986Z,99.50
2022-08-03T08:43:42.114Z,99.40
2022-08-03T08:46:13.165Z,99.50
2022-08-03T08:48:52.616Z,99.10
2022-08-03T08:51:21.557Z,99.10
2022-08-03T08:53:52.101Z,98.50
2022-08-03T08:56:22.908Z,98.30
2022-08-03T08:58:54.491Z,97.90
2022-08-03T09:01:22.067Z,97.70
2022-08-03T09:03:49.576Z,97.70
2022-08-03T09:06:17.429Z,97.60
2022-08-03T09:08:44.474Z,97.20
2022-08-03T09:11:12.223Z,97.10
2022-08-03T09:13:39.446Z,96.80
2022-08-03T09:16:11.265Z,96.60
2022-08-03T09:18:38.743Z,96.10
2022-08-03T09:21:36.000Z,96.30
2022-08-03T09:24:07.044Z,96.00
2022-08-03T09:26:38.018Z,96.10
2022-08-03T09:29:14.585Z,96.20
2022-08-03T09:31:46.228Z,96.00
2022-08-03T09:34:16.208Z,95.60
2022-08-03T09:36:46.913Z,95.30
2022-08-03T09:39:42.088Z,95.30
2022-08-03T09:42:17.477Z,95.30
2022-08-03T09:44:48.007Z,95.00
2022-08-03T09:47:28.410Z,95.00
2022-08-03T09:50:07.475Z,94.50
2022-08-03T09:52:39.136Z,94.30
2022-08-03T09:56:05.091Z,94.30
2022-08-03T09:58:09.482Z,94.40
2022-08-03T10:00:59.323Z,94.50
2022-08-03T10:03:28.829Z,94.30
2022-08-03T10:05:59.737Z,94.40
2022-08-03T10:08:27.452Z,94.20
2022-08-03T10:10:54.905Z,93.90
2022-08-03T10:13:23.509Z,94.00
2022-08-03T10:16:22.081Z,93.40
2022-08-03T10:18:37.989Z,93.70
2022-08-03T10:21:10.625Z,93.50
2022-08-03T10:23:40.535Z,93.60
2022-08-03T10:26:08.502Z,93.40
2022-08-03T10:28:44.542Z,93.20
2022-08-03T10:31:13.232Z,93.00
2022-08-03T10:33:51.082Z,93.50
2022-08-03T10:36:23.927Z,93.10
2022-08-03T10:38:56.710Z,92.90
2022-08-03T10:41:37.833Z,92.90
2022-08-03T10:44:13.777Z,92.40
2022-08-03T10:46:44.934Z,92.40
2022-08-03T10:49:25.499Z,92.20
2022-08-03T10:52:12.915Z,92.10
2022-08-03T10:55:10.662Z,92.30
2022-08-03T10:57:45.066Z,92.10
2022-08-03T11:00:15.996Z,91.30
2022-08-03T11:03:04.551Z,90.60
2022-08-03T11:05:36.560Z,91.10
2022-08-03T11:08:31.157Z,91.20
2022-08-03T11:11:23.776Z,90.90
2022-08-03T11:14:00.714Z,90.00
2022-08-03T11:16:28.493Z,90.50
2022-08-03T11:19:00.048Z,90.10
2022-08-03T11:21:49.050Z,88.90
2022-08-03T11:24:37.844Z,88.60
2022-08-03T11:27:28.674Z,90.00
2022-08-03T11:30:04.579Z,88.10
2022-08-03T11:32:48.472Z,89.20
2022-08-03T11:35:17.187Z,90.00
2022-08-03T11:38:01.931Z,88.50
2022-08-03T11:40:50.677Z,87.80
2022-08-03T11:43:35.273Z,87.80
2022-08-03T11:46:09.139Z,87.60
2022-08-03T11:48:44.091Z,87.60
2022-08-03T11:51:21.705Z,86.70
2022-08-03T11:53:52.981Z,86.60
2022-08-03T11:56:20.508Z,86.70
2022-08-03T11:59:17.314Z,86.60
2022-08-03T12:01:36.395Z,85.90
2022-08-03T12:04:05.538Z,86.00
2022-08-03T12:06:52.739Z,85.30
2022-08-03T12:09:21.241Z,85.10
2022-08-03T12:12:00.335Z,85.60
2022-08-03T12:14:48.600Z,83.90
2022-08-03T12:17:16.936Z,83.90
2022-08-03T12:19:45.169Z,84.10
2022-08-03T12:22:12.363Z,83.40
2022-08-03T12:24:43.770Z,81.40
2022-08-03T12:27:10.841Z,80.90
2022-08-03T12:29:37.959Z,78.70
2022-08-03T12:32:05.230Z,78.30
2022-08-03T12:34:50.867Z,79.20
2022-08-03T12:37:24.046Z,79.50
2022-08-03T12:40:02.272Z,78.10
2022-08-03T12:42:38.233Z,78.00
2022-08-03T12:45:27.088Z,77.90
2022-08-03T12:48:01.687Z,78.90
2022-08-03T12:50:34.216Z,76.70
2022-08-03T12:53:04.817Z,75.70
2022-08-03T12:55:57.943Z,74.50
2022-08-03T12:58:35.559Z,71.20
2022-08-03T13:01:09.856Z,75.20
2022-08-03T13:03:55.466Z,70.50
2022-08-03T13:06:25.033Z,73.80
2022-08-03T13:09:08.127Z,74.50
2022-08-03T13:11:55.508Z,69.70
2022-08-03T13:14:23.747Z,71.80
2022-08-03T13:16:51.243Z,73.60
2022-08-03T13:19:18.331Z,72.40
2022-08-03T13:22:01.852Z,71.50
2022-08-03T13:24:32.740Z,68.60
2022-08-03T13:27:00.825Z,67.60
2022-08-03T13:29:47.960Z,68.80
2022-08-03T13:32:15.233Z,68.60
2022-08-03T13:34:42.361Z,69.90
2022-08-03T13:37:10.304Z,70.20
2022-08-03T13:39:57.360Z,69.60
2022-08-03T13:42:25.336Z,69.30
2022-08-03T13:44:52.451Z,70.70
2022-08-03T13:47:20.221Z,71.70
2022-08-03T13:49:59.815Z,71.40
2022-08-03T13:52:36.285Z,69.70
2022-08-03T13:55:05.927Z,69.90
2022-08-03T13:58:03.396Z,68.50
2022-08-03T14:00:26.378Z,68.20
2022-08-03T14:03:02.921Z,69.00
2022-08-03T14:05:33.003Z,68.20
2022-08-03T14:08:05.878Z,67.50
2022-08-03T14:10:34.691Z,68.40
2022-08-03T14:13:01.735Z,66.20
2022-08-03T14:15:28.931Z,66.20
2022-08-03T14:17:58.477Z,64.30
2022-08-03T14:20:38.070Z,64.80
2022-08-03T14:23:07.360Z,63.60
2022-08-03T14:25:50.479Z,65.10
2022-08-03T14:28:21.076Z,65.70
2022-08-03T14:30:48.793Z,65.00
2022-08-03T14:33:16.031Z,64.40
2022-08-03T14:35:43.559Z,64.50
2022-08-03T14:38:10.541Z,64.30
2022-08-03T14:40:37.838Z,62.50
2022-08-03T14:43:07.935Z,62.50
2022-08-03T14:45:34.961Z,62.50
2022-08-03T14:50:32.674Z,62.40
2022-08-03T14:50:51.684Z,61.70
2022-08-03T14:53:20.045Z,62.20
2022-08-03T14:55:51.322Z,59.60
2022-08-03T14:58:23.709Z,61.20
2022-08-03T15:00:52.352Z,60.80
2022-08-03T15:03:23.704Z,58.20
2022-08-03T15:05:55.510Z,60.70
2022-08-03T15:08:24.284Z,61.30
2022-08-03T15:10:51.280Z,60.30
2022-08-03T15:13:19.651Z,59.30
2022-08-03T15:15:49.892Z,59.10
2022-08-03T15:18:17.039Z,59.20
2022-08-03T15:20:45.941Z,59.10
2022-08-03T15:23:15.612Z,57.20
2022-08-03T15:26:27.884Z,57.80
2022-08-03T15:28:32.529Z,55.40
2022-08-03T15:31:00.742Z,57.00
2022-08-03T15:33:28.470Z,57.60
2022-08-03T15:35:56.710Z,57.20
2022-08-03T15:38:26.129Z,58.40
2022-08-03T15:40:59.281Z,58.10
2022-08-03T15:43:26.490Z,58.40
2022-08-03T15:48:43.869Z,58.00
2022-08-03T15:51:10.970Z,57.60
2022-08-03T15:53:38.672Z,57.50
2022-08-03T15:56:14.243Z,57.20
2022-08-03T15:59:09.726Z,56.70
2022-08-03T16:01:31.194Z,55.50
2022-08-03T16:03:58.260Z,56.80
2022-08-03T16:06:35.534Z,56.70
2022-08-03T16:09:05.348Z,56.80
2022-08-03T16:11:32.867Z,57.50
2022-08-03T16:14:13.691Z,57.60
2022-08-03T16:16:47.229Z,56.90
2022-08-03T16:19:14.228Z,57.60
2022-08-03T16:21:48.567Z,57.70
2022-08-03T16:24:17.267Z,57.30
2022-08-03T16:26:47.124Z,58.00
2022-08-03T16:29:22.643Z,58.20
2022-08-03T16:31:51.099Z,58.10
2022-08-03T16:34:19.008Z,58.60
2022-08-03T16:36:46.093Z,58.10
2022-08-03T16:39:13.264Z,57.60
2022-08-03T16:41:56.801Z,57.50
2022-08-03T16:44:27.903Z,58.20
2022-08-03T16:46:54.953Z,59.60
2022-08-03T16:49:54.832Z,59.10
2022-08-03T16:52:08.971Z,57.90
2022-08-03T16:54:40.011Z,58.10
2022-08-03T16:57:08.591Z,57.90
2022-08-03T16:59:36.722Z,59.10
2022-08-03T17:02:09.899Z,58.60
2022-08-03T17:04:40.049Z,58.90
2022-08-03T17:07:08.915Z,59.60
2022-08-03T17:09:38.151Z,59.50
2022-08-03T17:12:07.187Z,59.80
2022-08-03T17:14:34.300Z,59.60
2022-08-03T17:17:03.990Z,60.20
2022-08-03T17:19:32.971Z,59.70
2022-08-03T17:22:13.467Z,59.00
2022-08-03T17:25:07.914Z,59.00
2022-08-03T17:28:43.100Z,59.30
2022-08-03T17:30:25.273Z,59.00
2022-08-03T17:32:52.606Z,59.00
2022-08-03T17:35:24.672Z,59.60
2022-08-03T17:38:05.740Z,59.00
2022-08-03T17:40:34.893Z,58.60
2022-08-03T17:44:13.284Z,58.20
2022-08-03T17:45:54.782Z,58.10
2022-08-03T17:48:25.138Z,57.40
2022-08-03T17:51:00.215Z,58.50
2022-08-03T17:53:35.203Z,59.00
2022-08-03T17:56:42.690Z,58.80
2022-08-03T17:59:10.747Z,58.40
2022-08-03T18:02:30.003Z,58.90
2022-08-03T18:05:16.397Z,59.30
2022-08-03T18:07:59.233Z,59.10
2022-08-03T18:10:34.122Z,59.90
2022-08-03T18:13:14.270Z,60.30
2022-08-03T18:15:52.225Z,60.30
2022-08-03T18:18:32.740Z,59.40
2022-08-03T18:21:04.686Z,60.00
2022-08-03T18:23:36.735Z,59.60
2022-08-03T18:28:55.588Z,60.00
2022-08-03T18:32:00.175Z,61.00
2022-08-03T18:34:17.624Z,62.50
2022-08-03T18:37:00.859Z,63.60
2022-08-03T18:39:39.001Z,64.70
2022-08-03T18:42:26.885Z,65.60
2022-08-03T18:44:56.275Z,65.40
2022-08-03T18:47:50.928Z,66.80
2022-08-03T18:50:34.736Z,67.10
2022-08-03T18:53:19.350Z,68.20
2022-08-03T18:56:08.806Z,69.30
2022-08-03T18:58:47.008Z,70.70
2022-08-03T19:02:00.004Z,70.80
2022-08-03T19:04:46.731Z,71.30
2022-08-03T19:07:26.449Z,72.20
2022-08-03T19:09:58.504Z,73.10
2022-08-03T19:12:45.123Z,73.20
2022-08-03T19:15:15.737Z,73.90
2022-08-03T19:17:53.338Z,74.50
2022-08-03T19:20:26.951Z,74.20
2022-08-03T19:22:57.494Z,75.10
2022-08-03T19:25:34.758Z,75.80
2022-08-03T19:30:55.427Z,76.30
2022-08-03T19:33:25.833Z,76.70
2022-08-03T19:35:57.775Z,77.20
2022-08-03T19:38:28.441Z,77.60
2022-08-03T19:41:04.566Z,77.90
2022-08-03T19:43:59.087Z,76.70
2022-08-03T19:46:31.195Z,76.50
2022-08-03T19:49:14.642Z,77.90
2022-08-03T19:52:00.549Z,78.80
2022-08-03T19:54:54.049Z,79.60
2022-08-03T19:57:24.913Z,80.30
2022-08-03T19:59:54.050Z,81.00
2022-08-03T20:02:26.510Z,81.40
2022-08-03T20:04:56.206Z,82.70
2022-08-03T20:07:24.136Z,83.60
2022-08-03T20:09:56.074Z,84.80
2022-08-03T20:12:27.696Z,84.40
2022-08-03T20:14:57.643Z,84.50
2022-08-03T20:17:56.642Z,84.90
2022-08-03T20:20:11.950Z,85.40
2022-08-03T20:22:45.480Z,86.10
2022-08-03T20:25:16.220Z,86.80
2022-08-03T20:28:07.791Z,87.00
2022-08-03T20:30:39.014Z,87.10
2022-08-03T20:33:09.806Z,87.30
2022-08-03T20:35:37.079Z,87.40
2022-08-03T20:38:04.127Z,87.40
2022-08-03T20:40:32.310Z,87.80
2022-08-03T20:43:00.019Z,88.50
2022-08-03T20:45:59.074Z,88.00
2022-08-03T20:48:17.475Z,88.40
2022-08-03T20:50:49.605Z,88.70
2022-08-03T20:53:57.443Z,88.80
2022-08-03T20:56:05.457Z,88.60
2022-08-03T20:58:36.001Z,88.70
2022-08-03T21:01:03.574Z,89.10
2022-08-03T21:03:41.039Z,89.40
2022-08-03T21:06:27.914Z,90.00
2022-08-03T21:09:05.438Z,90.10
2022-08-03T21:11:43.283Z,90.20
2022-08-03T21:13:02.204Z,75.90
2022-08-03T21:13:04.224Z,59.60
2022-08-03T21:14:30.478Z,90.40
2022-08-03T21:16:58.841Z,90.30
2022-08-03T21:19:30.539Z,90.70
2022-08-03T21:21:58.701Z,90.80
2022-08-03T21:24:30.754Z,90.90
2022-08-03T21:26:58.421Z,90.80
2022-08-03T21:29:25.518Z,91.00
2022-08-03T21:31:52.557Z,90.80
2022-08-03T21:34:20.959Z,90.90
2022-08-03T21:36:48.010Z,91.10
2022-08-03T21:39:15.245Z,91.40
2022-08-03T21:41:42.360Z,91.70
2022-08-03T21:44:09.481Z,91.90
2022-08-03T21:46:39.220Z,91.80
2022-08-03T21:50:05.554Z,91.90
2022-08-03T21:52:06.952Z,91.80
2022-08-03T21:54:41.087Z,91.80
2022-08-03T21:57:19.801Z,91.80
2022-08-03T21:59:57.197Z,91.90
2022-08-03T22:02:31.380Z,91.80
2022-08-03T22:04:59.429Z,91.90
2022-08-03T22:07:28.708Z,92.00
2022-08-03T22:09:56.932Z,92.20
2022-08-03T22:12:27.769Z,92.50
2022-08-03T22:15:01.184Z,92.80
2022-08-03T22:17:55.080Z,93.10
2022-08-03T22:20:19.867Z,93.40
2022-08-03T22:22:55.217Z,93.80
2022-08-03T22:25:31.056Z,94.00
2022-08-03T22:28:01.656Z,93.80
2022-08-03T22:30:29.251Z,93.90
2022-08-03T22:32:56.757Z,93.80
2022-08-03T22:35:27.262Z,94.00
2022-08-03T22:37:58.894Z,94.00
2022-08-03T22:40:28.160Z,94.00
2022-08-03T22:42:56.646Z,94.10
2022-08-03T22:46:06.058Z,94.20
2022-08-03T22:48:20.079Z,94.30
2022-08-03T22:50:51.298Z,94.40
2022-08-03T22:53:21.159Z,94.30
2022-08-03T22:55:52.317Z,94.10
2022-08-03T22:58:21.348Z,94.30
2022-08-03T23:00:54.247Z,94.60
2022-08-03T23:03:58.949Z,94.60
2022-08-03T23:06:16.571Z,94.50
2022-08-03T23:08:47.879Z,94.50
2022-08-03T23:11:17.927Z,94.90
2022-08-03T23:13:47.355Z,95.00
2022-08-03T23:16:15.914Z,95.10
2022-08-03T23:18:58.713Z,95.20
2022-08-03T23:22:00.120Z,95.10
2022-08-03T23:24:25.986Z,95.20
2022-08-03T23:26:58.346Z,95.10
2022-08-03T23:29:28.904Z,95.40
2022-08-03T23:31:57.695Z,95.50
2022-08-03T23:34:44.584Z,95.50
2022-08-03T23:37:14.823Z,95.60
2022-08-03T23:39:47.147Z,95.80
2022-08-03T23:42:18.229Z,96.20
2022-08-03T23:44:47.163Z,96.40
2022-08-03T23:47:14.562Z,96.20
2022-08-03T23:49:41.867Z,96.20
2022-08-03T23:52:39.564Z,96.50
2022-08-03T23:55:34.315Z,96.30
2022-08-03T23:58:28.443Z,96.60
